sensor_id;sensor_type;location;lat;lon;timestamp;pressure;altitude;pressure_sealevel;temperature;humidity
59104;BME280;51449;51.676;5.812;2023-04-23T00:00:54;100747.75;;;9.98;79.02
59104;BME280;51449;51.676;5.812;2023-04-23T00:03:19;100737.41;;;9.95;78.98
59104;BME280;51449;51.676;5.812;2023-04-23T00:05:44;100740.78;;;9.92;79.12
59104;BME280;51449;51.676;5.812;2023-04-23T00:08:09;100729.34;;;9.90;78.92
59104;BME280;51449;51.676;5.812;2023-04-23T00:10:31;100726.09;;;9.88;79.20
59104;BME280;51449;51.676;5.812;2023-04-23T00:12:54;100726.09;;;9.88;79.00
59104;BME280;51449;51.676;5.812;2023-04-23T00:15:19;100724.63;;;9.91;79.23
59104;BME280;51449;51.676;5.812;2023-04-23T00:17:42;100729.78;;;9.92;79.01
59104;BME280;51449;51.676;5.812;2023-04-23T00:20:04;100727.38;;;9.91;79.01
59104;BME280;51449;51.676;5.812;2023-04-23T00:22:27;100722.19;;;9.89;78.67
59104;BME280;51449;51.676;5.812;2023-04-23T00:24:48;100720.25;;;9.90;78.91
59104;BME280;51449;51.676;5.812;2023-04-23T00:27:10;100714.75;;;9.90;79.14
59104;BME280;51449;51.676;5.812;2023-04-23T00:29:32;100714.44;;;9.91;78.88
59104;BME280;51449;51.676;5.812;2023-04-23T00:31:54;100713.63;;;9.91;78.84
59104;BME280;51449;51.676;5.812;2023-04-23T00:34:16;100715.56;;;9.90;79.11
59104;BME280;51449;51.676;5.812;2023-04-23T00:36:37;100706.84;;;9.88;79.18
59104;BME280;51449;51.676;5.812;2023-04-23T00:38:59;100708.31;;;9.85;78.82
59104;BME280;51449;51.676;5.812;2023-04-23T00:41:22;100707.03;;;9.83;79.09
59104;BME280;51449;51.676;5.812;2023-04-23T00:43:45;100699.09;;;9.81;79.00
59104;BME280;51449;51.676;5.812;2023-04-23T00:46:07;100698.63;;;9.79;78.75
59104;BME280;51449;51.676;5.812;2023-04-23T00:48:29;100690.72;;;9.78;79.02
59104;BME280;51449;51.676;5.812;2023-04-23T00:51:04;100695.75;;;9.76;78.86
59104;BME280;51449;51.676;5.812;2023-04-23T00:53:26;100693.31;;;9.74;79.23
59104;BME280;51449;51.676;5.812;2023-04-23T00:55:48;100687.81;;;9.74;78.84
59104;BME280;51449;51.676;5.812;2023-04-23T00:58:10;100688.59;;;9.75;78.88
59104;BME280;51449;51.676;5.812;2023-04-23T01:00:36;100674.06;;;9.74;79.03
59104;BME280;51449;51.676;5.812;2023-04-23T01:03:05;100675.19;;;9.73;78.91
59104;BME280;51449;51.676;5.812;2023-04-23T01:05:27;100676.31;;;9.72;79.10
59104;BME280;51449;51.676;5.812;2023-04-23T01:07:49;100673.56;;;9.72;79.09
59104;BME280;51449;51.676;5.812;2023-04-23T01:10:12;100663.38;;;9.73;79.10
59104;BME280;51449;51.676;5.812;2023-04-23T01:12:35;100671.63;;;9.73;79.12
59104;BME280;51449;51.676;5.812;2023-04-23T01:14:57;100673.56;;;9.72;79.24
59104;BME280;51449;51.676;5.812;2023-04-23T01:17:19;100666.47;;;9.71;79.34
59104;BME280;51449;51.676;5.812;2023-04-23T01:19:42;100670.69;;;9.69;79.38
59104;BME280;51449;51.676;5.812;2023-04-23T01:22:12;100656.94;;;9.69;79.35
59104;BME280;51449;51.676;5.812;2023-04-23T01:24:34;100663.06;;;9.65;79.56
59104;BME280;51449;51.676;5.812;2023-04-23T01:26:57;100665.03;;;9.65;79.29
59104;BME280;51449;51.676;5.812;2023-04-23T01:29:20;100657.56;;;9.65;79.34
59104;BME280;51449;51.676;5.812;2023-04-23T01:31:42;100659.53;;;9.65;79.52
59104;BME280;51449;51.676;5.812;2023-04-23T01:34:05;100661.47;;;9.64;79.31
59104;BME280;51449;51.676;5.812;2023-04-23T01:36:28;100651.28;;;9.65;79.58
59104;BME280;51449;51.676;5.812;2023-04-23T01:38:51;100658.06;;;9.68;79.78
59104;BME280;51449;51.676;5.812;2023-04-23T01:41:14;100653.38;;;9.68;79.82
59104;BME280;51449;51.676;5.812;2023-04-23T01:43:36;100658.88;;;9.68;79.63
59104;BME280;51449;51.676;5.812;2023-04-23T01:45:58;100651.09;;;9.70;79.64
59104;BME280;51449;51.676;5.812;2023-04-23T01:48:21;100651.56;;;9.72;79.63
59104;BME280;51449;51.676;5.812;2023-04-23T01:50:44;100655.59;;;9.75;79.96
59104;BME280;51449;51.676;5.812;2023-04-23T01:53:05;100650.56;;;9.77;79.98
59104;BME280;51449;51.676;5.812;2023-04-23T01:55:27;100640.03;;;9.79;79.73
59104;BME280;51449;51.676;5.812;2023-04-23T01:57:49;100640.16;;;9.82;79.64
59104;BME280;51449;51.676;5.812;2023-04-23T02:00:13;100641.78;;;9.83;79.60
59104;BME280;51449;51.676;5.812;2023-04-23T02:02:37;100639.84;;;9.84;79.92
59104;BME280;51449;51.676;5.812;2023-04-23T02:05:00;100647.63;;;9.82;79.99
59104;BME280;51449;51.676;5.812;2023-04-23T02:07:26;100648.28;;;9.79;79.94
59104;BME280;51449;51.676;5.812;2023-04-23T02:09:48;100642.00;;;9.78;79.82
59104;BME280;51449;51.676;5.812;2023-04-23T02:12:09;100644.25;;;9.76;80.09
59104;BME280;51449;51.676;5.812;2023-04-23T02:14:31;100645.38;;;9.75;79.75
59104;BME280;51449;51.676;5.812;2023-04-23T02:16:53;100637.47;;;9.74;79.97
59104;BME280;51449;51.676;5.812;2023-04-23T02:19:16;100638.28;;;9.74;79.99
59104;BME280;51449;51.676;5.812;2023-04-23T02:21:38;100634.72;;;9.74;80.03
59104;BME280;51449;51.676;5.812;2023-04-23T02:23:59;100639.09;;;9.75;80.04
59104;BME280;51449;51.676;5.812;2023-04-23T02:26:21;100636.69;;;9.73;80.04
59104;BME280;51449;51.676;5.812;2023-04-23T02:28:45;100635.06;;;9.72;80.15
59104;BME280;51449;51.676;5.812;2023-04-23T02:31:07;100637.81;;;9.72;80.12
59104;BME280;51449;51.676;5.812;2023-04-23T02:33:32;100636.69;;;9.73;80.22
59104;BME280;51449;51.676;5.812;2023-04-23T02:35:54;100631.19;;;9.73;80.34
59104;BME280;51449;51.676;5.812;2023-04-23T02:38:16;100629.91;;;9.71;80.04
59104;BME280;51449;51.676;5.812;2023-04-23T02:40:37;100636.53;;;9.70;80.26
59104;BME280;51449;51.676;5.812;2023-04-23T02:42:59;100633.28;;;9.68;80.08
59104;BME280;51449;51.676;5.812;2023-04-23T02:45:21;100625.41;;;9.66;80.27
59104;BME280;51449;51.676;5.812;2023-04-23T02:47:44;100627.66;;;9.64;80.04
59104;BME280;51449;51.676;5.812;2023-04-23T02:50:06;100620.09;;;9.61;80.29
59104;BME280;51449;51.676;5.812;2023-04-23T02:52:28;100615.38;;;9.61;80.40
59104;BME280;51449;51.676;5.812;2023-04-23T02:54:50;100610.22;;;9.60;80.12
59104;BME280;51449;51.676;5.812;2023-04-23T02:57:11;100612.63;;;9.61;80.35
59104;BME280;51449;51.676;5.812;2023-04-23T02:59:36;100614.59;;;9.61;80.29
59104;BME280;51449;51.676;5.812;2023-04-23T03:01:57;100617.34;;;9.61;80.34
59104;BME280;51449;51.676;5.812;2023-04-23T03:04:20;100623.47;;;9.58;80.22
59104;BME280;51449;51.676;5.812;2023-04-23T03:06:43;100622.69;;;9.57;80.25
59104;BME280;51449;51.676;5.812;2023-04-23T03:09:04;100623.34;;;9.54;80.02
59104;BME280;51449;51.676;5.812;2023-04-23T03:11:26;100626.41;;;9.53;79.95
59104;BME280;51449;51.676;5.812;2023-04-23T03:13:49;100624.81;;;9.52;80.06
59104;BME280;51449;51.676;5.812;2023-04-23T03:16:12;100622.38;;;9.50;80.10
59104;BME280;51449;51.676;5.812;2023-04-23T03:18:34;100630.16;;;9.48;80.06
59104;BME280;51449;51.676;5.812;2023-04-23T03:20:56;100618.72;;;9.46;79.98
59104;BME280;51449;51.676;5.812;2023-04-23T03:23:18;100617.41;;;9.43;80.46
59104;BME280;51449;51.676;5.812;2023-04-23T03:25:41;100619.34;;;9.43;80.29
59104;BME280;51449;51.676;5.812;2023-04-23T03:28:02;100610.63;;;9.41;80.67
59104;BME280;51449;51.676;5.812;2023-04-23T03:30:25;100615.81;;;9.42;80.64
59104;BME280;51449;51.676;5.812;2023-04-23T03:32:49;100602.53;;;9.45;80.58
59104;BME280;51449;51.676;5.812;2023-04-23T03:35:11;100607.34;;;9.48;80.89
59104;BME280;51449;51.676;5.812;2023-04-23T03:37:37;100600.38;;;9.50;80.75
59104;BME280;51449;51.676;5.812;2023-04-23T03:39:59;100602.81;;;9.52;80.85
59104;BME280;51449;51.676;5.812;2023-04-23T03:42:25;100601.66;;;9.53;80.76
59104;BME280;51449;51.676;5.812;2023-04-23T03:44:47;100594.69;;;9.55;80.74
59104;BME280;51449;51.676;5.812;2023-04-23T03:47:09;100595.97;;;9.58;80.66
59104;BME280;51449;51.676;5.812;2023-04-23T03:49:31;100592.56;;;9.61;80.78
59104;BME280;51449;51.676;5.812;2023-04-23T03:51:53;100596.94;;;9.62;80.79
59104;BME280;51449;51.676;5.812;2023-04-23T03:54:15;100584.78;;;9.63;80.77
59104;BME280;51449;51.676;5.812;2023-04-23T03:56:56;100582.50;;;9.65;80.82
59104;BME280;51449;51.676;5.812;2023-04-23T03:59:23;100587.69;;;9.67;81.30
59104;BME280;51449;51.676;5.812;2023-04-23T04:01:48;100586.22;;;9.69;80.93
59104;BME280;51449;51.676;5.812;2023-04-23T04:04:09;100587.81;;;9.70;80.96
59104;BME280;51449;51.676;5.812;2023-04-23T04:06:32;100601.25;;;9.72;80.59
59104;BME280;51449;51.676;5.812;2023-04-23T04:08:53;100597.34;;;9.73;81.05
59104;BME280;51449;51.676;5.812;2023-04-23T04:11:16;100598.63;;;9.75;80.93
59104;BME280;51449;51.676;5.812;2023-04-23T04:13:37;100595.88;;;9.75;80.99
59104;BME280;51449;51.676;5.812;2023-04-23T04:15:59;100593.94;;;9.76;80.98
59104;BME280;51449;51.676;5.812;2023-04-23T04:18:21;100590.50;;;9.79;81.27
59104;BME280;51449;51.676;5.812;2023-04-23T04:20:43;100581.94;;;9.80;80.96
59104;BME280;51449;51.676;5.812;2023-04-23T04:23:05;100593.38;;;9.82;81.04
59104;BME280;51449;51.676;5.812;2023-04-23T04:25:27;100589.50;;;9.83;81.07
59104;BME280;51449;51.676;5.812;2023-04-23T04:27:50;100587.72;;;9.88;81.18
59104;BME280;51449;51.676;5.812;2023-04-23T04:30:12;100592.06;;;9.89;81.34
59104;BME280;51449;51.676;5.812;2023-04-23T04:32:34;100583.13;;;9.92;81.06
59104;BME280;51449;51.676;5.812;2023-04-23T04:34:59;100594.13;;;9.92;81.30
59104;BME280;51449;51.676;5.812;2023-04-23T04:37:21;100599.66;;;9.92;81.29
59104;BME280;51449;51.676;5.812;2023-04-23T04:39:42;100593.47;;;9.95;81.39
59104;BME280;51449;51.676;5.812;2023-04-23T04:42:04;100604.63;;;9.98;82.02
59104;BME280;51449;51.676;5.812;2023-04-23T04:44:28;100596.50;;;10.02;82.61
59104;BME280;51449;51.676;5.812;2023-04-23T04:46:50;100595.47;;;10.06;82.70
59104;BME280;51449;51.676;5.812;2023-04-23T04:49:13;100598.38;;;10.10;83.15
59104;BME280;51449;51.676;5.812;2023-04-23T04:51:39;100600.47;;;10.13;83.69
59104;BME280;51449;51.676;5.812;2023-04-23T04:54:01;100605.16;;;10.13;84.36
59104;BME280;51449;51.676;5.812;2023-04-23T04:56:24;100611.94;;;10.15;84.77
59104;BME280;51449;51.676;5.812;2023-04-23T04:58:46;100606.56;;;10.19;84.77
59104;BME280;51449;51.676;5.812;2023-04-23T05:01:08;100600.84;;;10.24;84.92
59104;BME280;51449;51.676;5.812;2023-04-23T05:03:31;100601.00;;;10.27;84.97
59104;BME280;51449;51.676;5.812;2023-04-23T05:05:53;100598.38;;;10.31;84.95
59104;BME280;51449;51.676;5.812;2023-04-23T05:08:19;100591.06;;;10.35;84.84
59104;BME280;51449;51.676;5.812;2023-04-23T05:10:42;100598.31;;;10.40;85.07
59104;BME280;51449;51.676;5.812;2023-04-23T05:13:04;100586.97;;;10.41;84.40
59104;BME280;51449;51.676;5.812;2023-04-23T05:15:26;100586.97;;;10.41;84.60
59104;BME280;51449;51.676;5.812;2023-04-23T05:17:48;100590.53;;;10.42;84.27
59104;BME280;51449;51.676;5.812;2023-04-23T05:20:14;100589.84;;;10.45;84.61
59104;BME280;51449;51.676;5.812;2023-04-23T05:22:40;100597.09;;;10.49;84.11
59104;BME280;51449;51.676;5.812;2023-04-23T05:25:04;100596.41;;;10.53;84.20
59104;BME280;51449;51.676;5.812;2023-04-23T05:27:26;100598.94;;;10.58;84.75
59104;BME280;51449;51.676;5.812;2023-04-23T05:29:48;100602.66;;;10.62;84.58
59104;BME280;51449;51.676;5.812;2023-04-23T05:32:10;100600.94;;;10.69;84.43
59104;BME280;51449;51.676;5.812;2023-04-23T05:34:32;100602.78;;;10.78;84.49
59104;BME280;51449;51.676;5.812;2023-04-23T05:36:54;100602.13;;;10.81;84.85
59104;BME280;51449;51.676;5.812;2023-04-23T05:39:16;100602.25;;;10.84;85.01
59104;BME280;51449;51.676;5.812;2023-04-23T05:41:38;100602.38;;;10.88;84.84
59104;BME280;51449;51.676;5.812;2023-04-23T05:43:59;100601.69;;;10.91;84.70
59104;BME280;51449;51.676;5.812;2023-04-23T05:46:21;100601.00;;;10.94;84.63
59104;BME280;51449;51.676;5.812;2023-04-23T05:48:43;100597.56;;;10.97;84.65
59104;BME280;51449;51.676;5.812;2023-04-23T05:51:05;100611.13;;;11.02;84.61
59104;BME280;51449;51.676;5.812;2023-04-23T05:53:27;100603.44;;;11.08;84.43
59104;BME280;51449;51.676;5.812;2023-04-23T05:55:49;100600.47;;;11.13;84.76
59104;BME280;51449;51.676;5.812;2023-04-23T05:58:11;100602.53;;;11.16;84.89
59104;BME280;51449;51.676;5.812;2023-04-23T06:00:32;100596.91;;;11.25;84.60
59104;BME280;51449;51.676;5.812;2023-04-23T06:02:55;100592.91;;;11.34;84.62
59104;BME280;51449;51.676;5.812;2023-04-23T06:05:18;100593.59;;;11.44;85.02
59104;BME280;51449;51.676;5.812;2023-04-23T06:07:41;100587.94;;;11.52;85.00
59104;BME280;51449;51.676;5.812;2023-04-23T06:10:03;100581.84;;;11.59;84.80
59104;BME280;51449;51.676;5.812;2023-04-23T06:12:26;100592.97;;;11.63;84.35
59104;BME280;51449;51.676;5.812;2023-04-23T06:14:47;100590.34;;;11.66;84.25
59104;BME280;51449;51.676;5.812;2023-04-23T06:17:09;100588.94;;;11.72;83.73
59104;BME280;51449;51.676;5.812;2023-04-23T06:19:31;100585.50;;;11.75;83.68
59104;BME280;51449;51.676;5.812;2023-04-23T06:21:53;100583.31;;;11.81;83.19
59104;BME280;51449;51.676;5.812;2023-04-23T06:24:15;100592.97;;;11.87;83.34
59104;BME280;51449;51.676;5.812;2023-04-23T06:26:37;100595.50;;;11.92;83.12
59104;BME280;51449;51.676;5.812;2023-04-23T06:29:05;100591.81;;;12.01;83.47
59104;BME280;51449;51.676;5.812;2023-04-23T06:31:32;100590.41;;;12.07;83.04
59104;BME280;51449;51.676;5.812;2023-04-23T06:33:53;100583.56;;;12.16;82.89
59104;BME280;51449;51.676;5.812;2023-04-23T06:36:15;100576.31;;;12.24;83.51
59104;BME280;51449;51.676;5.812;2023-04-23T06:38:37;100575.81;;;12.34;82.74
59104;BME280;51449;51.676;5.812;2023-04-23T06:40:59;100575.31;;;12.45;82.81
59104;BME280;51449;51.676;5.812;2023-04-23T06:43:21;100568.53;;;12.58;82.42
59104;BME280;51449;51.676;5.812;2023-04-23T06:46:02;100564.66;;;12.75;82.32
59104;BME280;51449;51.676;5.812;2023-04-23T06:48:24;100557.00;;;12.84;81.44
59104;BME280;51449;51.676;5.812;2023-04-23T06:50:47;100555.66;;;12.94;80.65
59104;BME280;51449;51.676;5.812;2023-04-23T06:53:09;100550.78;;;13.03;80.44
59104;BME280;51449;51.676;5.812;2023-04-23T06:55:31;100553.00;;;13.13;79.83
59104;BME280;51449;51.676;5.812;2023-04-23T06:57:54;100553.16;;;13.20;79.30
59104;BME280;51449;51.676;5.812;2023-04-23T07:00:16;100544.50;;;13.22;78.66
59104;BME280;51449;51.676;5.812;2023-04-23T07:02:40;100551.13;;;13.33;78.36
59104;BME280;51449;51.676;5.812;2023-04-23T07:05:02;100544.22;;;13.43;78.17
59104;BME280;51449;51.676;5.812;2023-04-23T07:07:25;100544.50;;;13.54;78.23
59104;BME280;51449;51.676;5.812;2023-04-23T07:09:47;100532.47;;;13.65;78.23
59104;BME280;51449;51.676;5.812;2023-04-23T07:12:09;100541.38;;;13.75;77.35
59104;BME280;51449;51.676;5.812;2023-04-23T07:14:31;100536.38;;;13.80;77.19
59104;BME280;51449;51.676;5.812;2023-04-23T07:16:54;100535.72;;;13.87;76.97
59104;BME280;51449;51.676;5.812;2023-04-23T07:19:15;100545.84;;;13.99;77.32
59104;BME280;51449;51.676;5.812;2023-04-23T07:21:37;100544.03;;;14.06;76.74
59104;BME280;51449;51.676;5.812;2023-04-23T07:24:00;100537.47;;;14.15;76.03
59104;BME280;51449;51.676;5.812;2023-04-23T07:26:28;100537.19;;;14.20;75.94
59104;BME280;51449;51.676;5.812;2023-04-23T07:28:50;100544.03;;;14.26;75.50
59104;BME280;51449;51.676;5.812;2023-04-23T07:31:13;100539.00;;;14.31;75.39
59104;BME280;51449;51.676;5.812;2023-04-23T07:33:35;100532.78;;;14.38;75.12
59104;BME280;51449;51.676;5.812;2023-04-23T07:35:57;100537.66;;;14.45;74.86
59104;BME280;51449;51.676;5.812;2023-04-23T07:38:19;100526.72;;;14.52;74.63
59104;BME280;51449;51.676;5.812;2023-04-23T07:40:41;100534.44;;;14.62;74.63
59104;BME280;51449;51.676;5.812;2023-04-23T07:43:03;100533.03;;;14.72;74.08
59104;BME280;51449;51.676;5.812;2023-04-23T07:45:25;100541.44;;;14.75;73.81
59104;BME280;51449;51.676;5.812;2023-04-23T07:47:49;100540.31;;;14.80;73.25
59104;BME280;51449;51.676;5.812;2023-04-23T07:50:11;100528.53;;;14.87;73.15
59104;BME280;51449;51.676;5.812;2023-04-23T07:52:34;100533.47;;;14.97;73.32
59104;BME280;51449;51.676;5.812;2023-04-23T07:54:56;100532.47;;;15.09;72.83
59104;BME280;51449;51.676;5.812;2023-04-23T07:57:17;100526.59;;;15.14;72.36
59104;BME280;51449;51.676;5.812;2023-04-23T07:59:39;100523.56;;;15.23;72.24
59104;BME280;51449;51.676;5.812;2023-04-23T08:02:04;100525.78;;;15.36;72.16
59104;BME280;51449;51.676;5.812;2023-04-23T08:04:26;100517.59;;;15.47;71.74
59104;BME280;51449;51.676;5.812;2023-04-23T08:06:48;100522.47;;;15.54;70.83
59104;BME280;51449;51.676;5.812;2023-04-23T08:09:10;100517.38;;;15.59;70.59
59104;BME280;51449;51.676;5.812;2023-04-23T08:11:32;100522.22;;;15.66;70.19
59104;BME280;51449;51.676;5.812;2023-04-23T08:13:54;100522.78;;;15.75;70.70
59104;BME280;51449;51.676;5.812;2023-04-23T08:16:16;100525.25;;;15.84;69.48
59104;BME280;51449;51.676;5.812;2023-04-23T08:18:37;100514.63;;;15.90;69.22
59104;BME280;51449;51.676;5.812;2023-04-23T08:21:00;100513.53;;;15.98;68.35
59104;BME280;51449;51.676;5.812;2023-04-23T08:23:22;100512.41;;;16.02;67.62
59104;BME280;51449;51.676;5.812;2023-04-23T08:25:44;100512.50;;;16.10;67.97
59104;BME280;51449;51.676;5.812;2023-04-23T08:28:06;100515.38;;;16.17;67.69
59104;BME280;51449;51.676;5.812;2023-04-23T08:30:28;100503.94;;;16.25;67.37
59104;BME280;51449;51.676;5.812;2023-04-23T08:32:51;100506.06;;;16.39;67.42
59104;BME280;51449;51.676;5.812;2023-04-23T08:35:16;100507.72;;;16.47;66.47
59104;BME280;51449;51.676;5.812;2023-04-23T08:37:37;100506.63;;;16.56;66.27
59104;BME280;51449;51.676;5.812;2023-04-23T08:40:00;100506.72;;;16.66;65.41
59104;BME280;51449;51.676;5.812;2023-04-23T08:42:41;100507.97;;;16.73;64.26
59104;BME280;51449;51.676;5.812;2023-04-23T08:45:18;100495.69;;;16.77;64.02
59104;BME280;51449;51.676;5.812;2023-04-23T08:47:41;100498.22;;;16.89;65.04
59104;BME280;51449;51.676;5.812;2023-04-23T08:50:04;100498.72;;;17.02;63.96
59104;BME280;51449;51.676;5.812;2023-04-23T08:52:32;100496.81;;;17.14;63.48
59104;BME280;51449;51.676;5.812;2023-04-23T08:54:59;100493.75;;;17.29;63.95
59104;BME280;51449;51.676;5.812;2023-04-23T08:57:23;100487.84;;;17.45;63.09
59104;BME280;51449;51.676;5.812;2023-04-23T08:59:46;100492.34;;;17.61;63.21
59104;BME280;51449;51.676;5.812;2023-04-23T09:02:08;100497.13;;;17.64;60.44
59104;BME280;51449;51.676;5.812;2023-04-23T09:04:31;100495.97;;;17.72;60.32
59104;BME280;51449;51.676;5.812;2023-04-23T09:06:54;100491.63;;;17.78;60.06
59104;BME280;51449;51.676;5.812;2023-04-23T09:09:17;100487.31;;;17.91;60.22
59104;BME280;51449;51.676;5.812;2023-04-23T09:11:44;100488.97;;;18.00;60.30
59104;BME280;51449;51.676;5.812;2023-04-23T09:14:07;100479.41;;;18.08;60.11
59104;BME280;51449;51.676;5.812;2023-04-23T09:16:29;100477.06;;;18.17;59.60
59104;BME280;51449;51.676;5.812;2023-04-23T09:18:51;100482.63;;;18.21;58.71
59104;BME280;51449;51.676;5.812;2023-04-23T09:21:13;100475.47;;;18.23;58.79
59104;BME280;51449;51.676;5.812;2023-04-23T09:23:37;100475.09;;;18.32;58.56
59104;BME280;51449;51.676;5.812;2023-04-23T09:26:05;100484.69;;;18.49;59.01
59104;BME280;51449;51.676;5.812;2023-04-23T09:28:36;100483.91;;;18.59;57.32
59104;BME280;51449;51.676;5.812;2023-04-23T09:30:59;100479.91;;;18.60;56.16
59104;BME280;51449;51.676;5.812;2023-04-23T09:33:21;100478.31;;;18.70;57.40
59104;BME280;51449;51.676;5.812;2023-04-23T09:35:43;100478.78;;;18.83;56.05
59104;BME280;51449;51.676;5.812;2023-04-23T09:38:06;100469.19;;;18.98;56.42
59104;BME280;51449;51.676;5.812;2023-04-23T09:40:28;100465.19;;;19.17;55.98
59104;BME280;51449;51.676;5.812;2023-04-23T09:42:51;100462.75;;;19.33;54.78
59104;BME280;51449;51.676;5.812;2023-04-23T09:45:15;100471.13;;;19.33;52.73
59104;BME280;51449;51.676;5.812;2023-04-23T09:47:38;100464.78;;;19.22;52.69
59104;BME280;51449;51.676;5.812;2023-04-23T09:50:10;100476.75;;;19.08;51.45
59104;BME280;51449;51.676;5.812;2023-04-23T09:52:32;100473.16;;;18.97;51.44
59104;BME280;51449;51.676;5.812;2023-04-23T09:55:00;100467.16;;;19.09;52.54
59104;BME280;51449;51.676;5.812;2023-04-23T09:57:24;100466.38;;;19.12;50.79
59104;BME280;51449;51.676;5.812;2023-04-23T09:59:46;100458.78;;;19.16;50.58
59104;BME280;51449;51.676;5.812;2023-04-23T10:02:17;100466.38;;;19.19;51.03
59104;BME280;51449;51.676;5.812;2023-04-23T10:04:40;100460.78;;;19.23;50.24
59104;BME280;51449;51.676;5.812;2023-04-23T10:07:04;100462.00;;;19.22;49.48
59104;BME280;51449;51.676;5.812;2023-04-23T10:09:40;100457.59;;;19.17;49.93
59104;BME280;51449;51.676;5.812;2023-04-23T10:12:04;100454.44;;;19.01;49.80
59104;BME280;51449;51.676;5.812;2023-04-23T10:14:38;100452.84;;;18.82;50.10
59104;BME280;51449;51.676;5.812;2023-04-23T10:17:02;100450.81;;;18.65;50.02
59104;BME280;51449;51.676;5.812;2023-04-23T10:19:27;100452.00;;;18.67;50.66
59104;BME280;51449;51.676;5.812;2023-04-23T10:21:55;100445.25;;;18.72;51.00
59104;BME280;51449;51.676;5.812;2023-04-23T10:24:39;100451.25;;;18.77;50.58
59104;BME280;51449;51.676;5.812;2023-04-23T10:27:03;100459.25;;;18.83;51.41
59104;BME280;51449;51.676;5.812;2023-04-23T10:29:47;100447.28;;;18.86;49.88
59104;BME280;51449;51.676;5.812;2023-04-23T10:32:10;100446.47;;;18.96;51.33
59104;BME280;51449;51.676;5.812;2023-04-23T10:34:33;100436.88;;;19.04;51.01
59104;BME280;51449;51.676;5.812;2023-04-23T10:36:58;100440.06;;;19.17;51.24
59104;BME280;51449;51.676;5.812;2023-04-23T10:39:22;100427.66;;;19.25;50.62
59104;BME280;51449;51.676;5.812;2023-04-23T10:41:51;100427.25;;;19.34;49.57
59104;BME280;51449;51.676;5.812;2023-04-23T10:44:15;100427.19;;;19.44;49.22
59104;BME280;51449;51.676;5.812;2023-04-23T10:46:50;100423.97;;;19.50;49.67
59104;BME280;51449;51.676;5.812;2023-04-23T10:49:14;100420.44;;;19.42;48.73
59104;BME280;51449;51.676;5.812;2023-04-23T10:51:38;100420.03;;;19.33;49.00
59104;BME280;51449;51.676;5.812;2023-04-23T10:54:03;100416.91;;;19.20;48.94
59104;BME280;51449;51.676;5.812;2023-04-23T10:56:26;100414.91;;;19.13;49.65
59104;BME280;51449;51.676;5.812;2023-04-23T10:58:49;100411.31;;;19.09;50.33
59104;BME280;51449;51.676;5.812;2023-04-23T11:01:12;100414.53;;;19.04;50.68
59104;BME280;51449;51.676;5.812;2023-04-23T11:03:40;100408.16;;;19.00;50.51
59104;BME280;51449;51.676;5.812;2023-04-23T11:06:06;100406.56;;;18.99;51.86
59104;BME280;51449;51.676;5.812;2023-04-23T11:08:29;100409.78;;;18.97;51.32
59104;BME280;51449;51.676;5.812;2023-04-23T11:10:54;100401.75;;;18.99;50.52
59104;BME280;51449;51.676;5.812;2023-04-23T11:13:25;100404.94;;;19.09;50.34
59104;BME280;51449;51.676;5.812;2023-04-23T11:15:48;100395.38;;;19.17;50.61
59104;BME280;51449;51.676;5.812;2023-04-23T11:18:30;100383.34;;;19.34;51.11
59104;BME280;51449;51.676;5.812;2023-04-23T11:20:55;100384.09;;;19.42;50.46
59104;BME280;51449;51.676;5.812;2023-04-23T11:23:30;100374.47;;;19.50;49.82
59104;BME280;51449;51.676;5.812;2023-04-23T11:25:53;100378.81;;;19.65;50.49
59104;BME280;51449;51.676;5.812;2023-04-23T11:28:15;100371.22;;;19.70;49.63
59104;BME280;51449;51.676;5.812;2023-04-23T11:30:41;100380.41;;;19.66;49.18
59104;BME280;51449;51.676;5.812;2023-04-23T11:33:03;100378.81;;;19.65;49.63
59104;BME280;51449;51.676;5.812;2023-04-23T11:35:26;100366.88;;;19.54;48.60
59104;BME280;51449;51.676;5.812;2023-04-23T11:37:49;100364.16;;;19.43;50.02
59104;BME280;51449;51.676;5.812;2023-04-23T11:40:13;100356.97;;;19.39;49.52
59104;BME280;51449;51.676;5.812;2023-04-23T11:42:40;100356.59;;;19.33;49.82
59104;BME280;51449;51.676;5.812;2023-04-23T11:45:20;100343.00;;;19.39;50.63
59104;BME280;51449;51.676;5.812;2023-04-23T11:48:05;100345.78;;;19.46;50.51
59104;BME280;51449;51.676;5.812;2023-04-23T11:50:47;100338.91;;;19.58;49.86
59104;BME280;51449;51.676;5.812;2023-04-23T11:53:28;100335.28;;;19.72;49.90
59104;BME280;51449;51.676;5.812;2023-04-23T11:56:10;100330.03;;;19.77;50.08
59104;BME280;51449;51.676;5.812;2023-04-23T11:59:02;100318.09;;;19.73;48.89
59104;BME280;51449;51.676;5.812;2023-04-23T12:01:47;100318.06;;;19.80;49.23
59104;BME280;51449;51.676;5.812;2023-04-23T12:04:32;100315.22;;;19.84;49.37
59104;BME280;51449;51.676;5.812;2023-04-23T12:07:14;100312.81;;;19.86;49.05
59104;BME280;51449;51.676;5.812;2023-04-23T12:10:07;100309.97;;;19.93;49.56
59104;BME280;51449;51.676;5.812;2023-04-23T12:12:51;100297.97;;;20.00;48.58
59104;BME280;51449;51.676;5.812;2023-04-23T12:15:45;100295.84;;;20.15;49.44
59104;BME280;51449;51.676;5.812;2023-04-23T12:18:17;100285.25;;;20.33;49.14
59104;BME280;51449;51.676;5.812;2023-04-23T12:20:43;100281.53;;;20.47;46.63
59104;BME280;51449;51.676;5.812;2023-04-23T12:23:16;100275.84;;;20.58;48.30
59104;BME280;51449;51.676;5.812;2023-04-23T12:25:52;100273.81;;;20.62;47.01
59104;BME280;51449;51.676;5.812;2023-04-23T12:28:26;100269.69;;;20.73;47.10
59104;BME280;51449;51.676;5.812;2023-04-23T12:31:01;100274.44;;;20.80;45.88
59104;BME280;51449;51.676;5.812;2023-04-23T12:33:33;100272.75;;;20.86;44.82
59104;BME280;51449;51.676;5.812;2023-04-23T12:36:10;100260.84;;;20.79;44.62
59104;BME280;51449;51.676;5.812;2023-04-23T12:38:42;100257.72;;;20.73;45.19